Time;durP1;ratioP1;P1;durP2;ratioP2;P2;SDS_P1;SDS_P2;PMS_P1;PMS_P2;Temp;Humidity;BMP_temperature;BMP_pressure;BME280_temperature;BME280_humidity;BME280_pressure;Samples;Min_cycle;Max_cycle;Signal;HPM_P1;HPM_P2
2022/05/17 00:01:38;;;;;;;15.25;13.73;;;;;;;;;;5055018;28;20774;-83
2022/05/17 00:04:06;;;;;;;15.88;13.35;;;;;;;;;;5055516;28;20201;-83
2022/05/17 00:06:33;;;;;;;14.93;12.93;;;;;;;;;;5055766;28;20201;-83
2022/05/17 00:09:01;;;;;;;14.00;12.60;;;;;;;;;;5055336;28;20226;-82
2022/05/17 00:11:29;;;;;;;14.13;12.63;;;;;;;;;;5055349;28;20718;-83
2022/05/17 00:13:56;;;;;;;11.95;10.85;;;;;;;;;;5055225;28;20201;-83
2022/05/17 00:16:25;;;;;;;12.23;11.05;;;;;;;;;;5055541;28;20204;-83
2022/05/17 00:18:53;;;;;;;9.27;8.48;;;;;;;;;;5055443;28;20574;-83
2022/05/17 00:21:20;;;;;;;12.60;11.50;;;;;;;;;;5055323;28;20214;-83
2022/05/17 00:23:48;;;;;;;13.48;12.13;;;;;;;;;;5054927;28;20570;-82
2022/05/17 00:26:15;;;;;;;13.45;12.00;;;;;;;;;;5055471;28;20201;-83
2022/05/17 00:28:43;;;;;;;12.85;11.52;;;;;;;;;;5055033;28;20221;-84
2022/05/17 00:31:11;;;;;;;10.40;9.43;;;;;;;;;;5054557;28;20268;-85
2022/05/17 00:33:40;;;;;;;11.98;10.68;;;;;;;;;;5054709;28;20206;-82
2022/05/17 00:36:08;;;;;;;13.63;12.18;;;;;;;;;;5055010;28;20190;-83
2022/05/17 00:38:36;;;;;;;11.13;10.13;;;;;;;;;;5055037;28;20213;-83
2022/05/17 00:41:03;;;;;;;12.52;11.25;;;;;;;;;;5054571;28;20232;-83
2022/05/17 00:44:42;;;;;;;13.23;11.45;;;;;;;;;;5054591;28;20554;-82
2022/05/17 00:46:38;;;;;;;10.77;9.68;;;;;;;;;;5071772;28;20740;-82
2022/05/17 00:49:11;;;;;;;9.07;8.13;;;;;;;;;;5074795;28;20708;-82
2022/05/17 00:51:40;;;;;;;11.30;9.98;;;;;;;;;;5074499;28;20181;-83
2022/05/17 00:54:12;;;;;;;10.48;9.60;;;;;;;;;;5074894;28;20608;-82
2022/05/17 00:56:42;;;;;;;13.13;10.35;;;;;;;;;;5074535;28;20927;-83
2022/05/17 00:59:10;;;;;;;11.38;10.30;;;;;;;;;;5074120;28;20217;-83
2022/05/17 01:01:38;;;;;;;9.95;9.05;;;;;;;;;;5073774;28;20221;-83
2022/05/17 01:04:12;;;;;;;10.13;9.13;;;;;;;;;;5074867;28;20231;-84
2022/05/17 01:06:42;;;;;;;8.98;8.07;;;;;;;;;;5074528;28;20211;-83
2022/05/17 01:09:10;;;;;;;7.82;7.13;;;;;;;;;;5074921;28;20221;-83
2022/05/17 01:11:37;;;;;;;9.95;8.90;;;;;;;;;;5077482;28;20552;-83
2022/05/17 01:16:50;;;;;;;9.27;8.25;;;;;;;;;;5034247;28;20213;-83
2022/05/17 01:19:18;;;;;;;8.90;7.63;;;;;;;;;;5033747;28;20226;-82
2022/05/17 01:21:47;;;;;;;6.40;5.90;;;;;;;;;;5033590;28;20230;-82
2022/05/17 01:24:14;;;;;;;5.90;5.40;;;;;;;;;;5033246;28;20210;-83
2022/05/17 01:26:45;;;;;;;8.73;7.32;;;;;;;;;;5033079;28;20213;-83
2022/05/17 01:29:14;;;;;;;7.13;5.85;;;;;;;;;;5033612;28;20226;-82
2022/05/17 01:31:43;;;;;;;6.20;5.60;;;;;;;;;;5032731;28;20194;-83
2022/05/17 01:34:11;;;;;;;5.97;5.45;;;;;;;;;;5033188;28;20232;-82
2022/05/17 01:36:40;;;;;;;8.60;7.80;;;;;;;;;;5033094;28;20206;-82
2022/05/17 01:39:09;;;;;;;6.55;5.95;;;;;;;;;;5032760;28;20772;-82
2022/05/17 01:41:37;;;;;;;8.10;7.32;;;;;;;;;;5032223;28;20717;-82
2022/05/17 01:44:05;;;;;;;6.80;6.15;;;;;;;;;;5032928;28;20298;-82
2022/05/17 01:46:33;;;;;;;5.50;5.00;;;;;;;;;;5070425;28;20203;-83
2022/05/17 01:49:00;;;;;;;4.97;4.53;;;;;;;;;;5072698;28;20225;-82
2022/05/17 01:51:27;;;;;;;4.35;3.95;;;;;;;;;;5072461;28;20278;-82
2022/05/17 01:53:55;;;;;;;5.47;4.80;;;;;;;;;;5072549;28;20209;-83
2022/05/17 01:56:23;;;;;;;4.65;4.13;;;;;;;;;;5072606;28;20555;-82
2022/05/17 01:58:50;;;;;;;4.43;4.07;;;;;;;;;;5072113;28;20609;-84
2022/05/17 02:01:18;;;;;;;5.55;5.07;;;;;;;;;;5072805;28;20665;-82
2022/05/17 02:03:45;;;;;;;4.18;3.78;;;;;;;;;;5072029;28;20205;-82
2022/05/17 02:06:12;;;;;;;5.57;4.88;;;;;;;;;;5072747;28;20201;-82
2022/05/17 02:08:40;;;;;;;3.70;3.40;;;;;;;;;;5072281;28;20250;-83
2022/05/17 02:11:07;;;;;;;5.18;4.68;;;;;;;;;;5072219;28;20204;-83
2022/05/17 02:13:38;;;;;;;8.63;6.07;;;;;;;;;;5071375;28;20200;-82
2022/05/17 02:16:06;;;;;;;7.55;6.85;;;;;;;;;;5072290;28;20205;-83
2022/05/17 02:18:33;;;;;;;5.93;5.32;;;;;;;;;;5071778;28;20193;-83
2022/05/17 02:21:00;;;;;;;5.82;4.97;;;;;;;;;;5072105;28;20266;-82
2022/05/17 02:23:28;;;;;;;8.88;6.72;;;;;;;;;;5036302;28;1014460;-82
2022/05/17 02:25:55;;;;;;;5.93;5.30;;;;;;;;;;5072968;28;20289;-83
2022/05/17 02:28:23;;;;;;;5.03;4.53;;;;;;;;;;5073237;28;20212;-82
2022/05/17 02:30:52;;;;;;;5.85;5.32;;;;;;;;;;5072943;28;20232;-83
2022/05/17 02:33:19;;;;;;;3.72;3.42;;;;;;;;;;5072148;28;20220;-82
2022/05/17 02:35:46;;;;;;;4.10;2.72;;;;;;;;;;5073141;28;20208;-83
2022/05/17 02:38:14;;;;;;;3.53;2.53;;;;;;;;;;5073191;28;20261;-84
2022/05/17 02:40:41;;;;;;;3.38;3.08;;;;;;;;;;5073275;28;20217;-82
2022/05/17 02:43:11;;;;;;;3.80;3.50;;;;;;;;;;5072045;28;20225;-83
2022/05/17 02:45:38;;;;;;;4.10;3.70;;;;;;;;;;5061558;28;20205;-84
2022/05/17 02:48:08;;;;;;;3.33;2.90;;;;;;;;;;5052964;28;20202;-82
2022/05/17 02:50:35;;;;;;;4.60;4.20;;;;;;;;;;5052752;28;20234;-83
2022/05/17 02:53:03;;;;;;;3.33;2.92;;;;;;;;;;5052437;28;20209;-83
2022/05/17 02:55:31;;;;;;;3.22;2.92;;;;;;;;;;5052908;28;20202;-82
2022/05/17 02:57:59;;;;;;;3.28;2.75;;;;;;;;;;5052523;28;20240;-82
2022/05/17 03:00:26;;;;;;;2.83;2.60;;;;;;;;;;5052982;28;20221;-84
2022/05/17 03:02:54;;;;;;;4.38;3.97;;;;;;;;;;5052307;28;20249;-83
2022/05/17 03:05:23;;;;;;;2.97;2.78;;;;;;;;;;5052782;28;20579;-85
2022/05/17 03:07:50;;;;;;;5.25;4.75;;;;;;;;;;5051543;28;20668;-85
2022/05/17 03:10:18;;;;;;;3.88;3.35;;;;;;;;;;5055252;28;20226;-82
2022/05/17 03:12:46;;;;;;;4.63;3.35;;;;;;;;;;5056438;28;20468;-82
2022/05/17 03:15:20;;;;;;;3.17;2.90;;;;;;;;;;5064490;28;20205;-82
2022/05/17 03:17:48;;;;;;;3.22;2.92;;;;;;;;;;5076617;28;20208;-83
2022/05/17 03:20:15;;;;;;;5.00;4.50;;;;;;;;;;5076633;28;20227;-83
2022/05/17 03:22:44;;;;;;;4.72;3.80;;;;;;;;;;5075767;28;20231;-82
2022/05/17 03:25:11;;;;;;;4.57;3.25;;;;;;;;;;5076668;28;20208;-83
2022/05/17 03:27:39;;;;;;;3.17;2.90;;;;;;;;;;5076607;28;20203;-83
2022/05/17 03:30:10;;;;;;;3.08;2.78;;;;;;;;;;5076696;28;20626;-82
2022/05/17 03:32:37;;;;;;;3.38;3.08;;;;;;;;;;5074156;28;20205;-83
2022/05/17 03:35:06;;;;;;;3.25;2.80;;;;;;;;;;5076534;28;20404;-83
2022/05/17 03:37:34;;;;;;;3.80;3.40;;;;;;;;;;5075987;28;20200;-83
2022/05/17 03:40:04;;;;;;;3.20;2.90;;;;;;;;;;5076723;28;20224;-84
2022/05/17 03:42:31;;;;;;;4.93;3.95;;;;;;;;;;5075643;28;20241;-83
2022/05/17 03:44:58;;;;;;;6.07;5.18;;;;;;;;;;5070057;28;20209;-82
2022/05/17 03:47:26;;;;;;;4.80;3.95;;;;;;;;;;5055598;28;20212;-83
2022/05/17 03:49:53;;;;;;;4.40;3.42;;;;;;;;;;5055729;28;20244;-83
2022/05/17 03:52:25;;;;;;;3.55;3.25;;;;;;;;;;5055491;28;20201;-82
2022/05/17 03:54:56;;;;;;;4.60;4.20;;;;;;;;;;5056276;28;20208;-83
2022/05/17 03:57:25;;;;;;;3.95;3.58;;;;;;;;;;5055873;28;20232;-82
2022/05/17 03:59:53;;;;;;;7.10;3.92;;;;;;;;;;5056057;28;20221;-83
2022/05/17 04:02:21;;;;;;;5.65;3.67;;;;;;;;;;5055375;28;20578;-83
2022/05/17 04:04:51;;;;;;;4.63;3.63;;;;;;;;;;5056123;28;20198;-83
2022/05/17 04:07:19;;;;;;;7.32;3.80;;;;;;;;;;5060603;28;20255;-82
2022/05/17 04:09:46;;;;;;;4.65;3.17;;;;;;;;;;5055158;28;20217;-83
2022/05/17 04:12:13;;;;;;;3.05;2.83;;;;;;;;;;5055156;28;20197;-82
2022/05/17 04:14:42;;;;;;;4.90;3.92;;;;;;;;;;5055424;28;20662;-83
2022/05/17 04:17:10;;;;;;;6.22;4.20;;;;;;;;;;5055676;28;20588;-82
2022/05/17 04:19:39;;;;;;;3.92;3.63;;;;;;;;;;5055462;28;20326;-82
2022/05/17 04:22:08;;;;;;;3.92;3.13;;;;;;;;;;5054875;28;20212;-83
2022/05/17 04:24:36;;;;;;;5.22;2.92;;;;;;;;;;5055386;28;20805;-82
2022/05/17 04:27:03;;;;;;;4.93;3.35;;;;;;;;;;5055184;28;20255;-83
2022/05/17 04:29:31;;;;;;;4.05;3.63;;;;;;;;;;5055350;28;20229;-82
2022/05/17 04:32:01;;;;;;;4.28;2.90;;;;;;;;;;5054917;28;20205;-84
2022/05/17 04:34:28;;;;;;;3.05;2.72;;;;;;;;;;5055109;28;20198;-84
2022/05/17 04:36:56;;;;;;;3.38;3.08;;;;;;;;;;5054936;28;20209;-82
2022/05/17 04:39:24;;;;;;;4.72;3.67;;;;;;;;;;5054887;28;20221;-83
2022/05/17 04:41:53;;;;;;;6.95;3.70;;;;;;;;;;5057940;28;20205;-83
2022/05/17 04:44:20;;;;;;;2.08;1.85;;;;;;;;;;5056528;28;20220;-83
2022/05/17 04:46:47;;;;;;;5.72;3.83;;;;;;;;;;5055181;28;20206;-82
2022/05/17 04:49:16;;;;;;;3.88;3.10;;;;;;;;;;5054911;28;20249;-84
2022/05/17 04:51:44;;;;;;;4.70;3.30;;;;;;;;;;5054134;28;20198;-83
2022/05/17 04:54:11;;;;;;;3.55;3.25;;;;;;;;;;5055024;28;20200;-84
2022/05/17 04:56:38;;;;;;;2.38;2.03;;;;;;;;;;5055035;28;20202;-83
2022/05/17 04:59:06;;;;;;;4.65;4.15;;;;;;;;;;5054355;28;20228;-83
2022/05/17 05:01:34;;;;;;;5.15;4.65;;;;;;;;;;5054505;28;20204;-83
2022/05/17 05:04:02;;;;;;;7.53;6.40;;;;;;;;;;5054613;28;20256;-83
2022/05/17 05:06:30;;;;;;;6.75;6.18;;;;;;;;;;5054600;28;20201;-84
2022/05/17 05:08:58;;;;;;;6.63;5.97;;;;;;;;;;5054496;28;20210;-82
2022/05/17 05:11:25;;;;;;;7.47;6.75;;;;;;;;;;5054589;28;20561;-78
2022/05/17 05:13:52;;;;;;;7.38;6.68;;;;;;;;;;5052449;28;20601;-78
2022/05/17 05:16:19;;;;;;;7.47;6.78;;;;;;;;;;5053178;28;20210;-78
2022/05/17 05:18:47;;;;;;;7.80;7.10;;;;;;;;;;5053551;28;20201;-78
2022/05/17 05:21:17;;;;;;;9.70;8.00;;;;;;;;;;5053261;28;20253;-78
2022/05/17 05:23:45;;;;;;;5.40;4.90;;;;;;;;;;5052890;28;20225;-79
2022/05/17 05:26:14;;;;;;;7.07;6.35;;;;;;;;;;5054159;28;20259;-78
2022/05/17 05:28:44;;;;;;;7.72;7.03;;;;;;;;;;5054189;28;20198;-77
2022/05/17 05:31:12;;;;;;;8.57;7.70;;;;;;;;;;5052300;28;20198;-78
2022/05/17 05:33:40;;;;;;;7.07;6.40;;;;;;;;;;5051648;28;20198;-78
2022/05/17 05:36:09;;;;;;;12.13;10.88;;;;;;;;;;5053214;28;20244;-78
2022/05/17 05:38:36;;;;;;;10.90;10.00;;;;;;;;;;5052756;28;20206;-78
2022/05/17 05:41:05;;;;;;;11.13;8.82;;;;;;;;;;5052720;28;20229;-78
2022/05/17 05:43:32;;;;;;;10.07;9.13;;;;;;;;;;5050952;28;20622;-78
2022/05/17 05:45:59;;;;;;;10.57;9.48;;;;;;;;;;5053163;28;20206;-77
2022/05/17 05:48:26;;;;;;;9.02;8.23;;;;;;;;;;5052110;28;20206;-78
2022/05/17 05:50:54;;;;;;;5.82;5.32;;;;;;;;;;5052249;28;20232;-77
2022/05/17 05:53:22;;;;;;;9.50;8.00;;;;;;;;;;5051528;28;20205;-77
2022/05/17 05:55:57;;;;;;;7.60;6.90;;;;;;;;;;5051838;28;20205;-77
2022/05/17 05:58:26;;;;;;;9.18;8.27;;;;;;;;;;5051922;28;20217;-77
2022/05/17 06:00:53;;;;;;;7.82;7.13;;;;;;;;;;5051667;28;20225;-77
2022/05/17 06:03:20;;;;;;;6.90;6.30;;;;;;;;;;5051345;28;20669;-78
2022/05/17 06:05:48;;;;;;;6.88;6.25;;;;;;;;;;5051615;28;20774;-77
2022/05/17 06:08:16;;;;;;;7.32;6.05;;;;;;;;;;5051799;28;20217;-78
2022/05/17 06:10:44;;;;;;;8.02;7.22;;;;;;;;;;5051312;28;20229;-77
2022/05/17 06:13:13;;;;;;;6.03;5.53;;;;;;;;;;5050927;28;20212;-77
2022/05/17 06:15:42;;;;;;;6.05;5.50;;;;;;;;;;5055745;28;20626;-77
2022/05/17 06:18:11;;;;;;;6.00;5.50;;;;;;;;;;5051908;28;20241;-77
2022/05/17 06:20:39;;;;;;;7.55;6.57;;;;;;;;;;5051688;28;20225;-77
2022/05/17 06:23:08;;;;;;;6.25;5.53;;;;;;;;;;5050744;28;20697;-77
2022/05/17 06:25:35;;;;;;;5.03;4.53;;;;;;;;;;5051554;28;20230;-77
2022/05/17 06:28:03;;;;;;;6.85;5.63;;;;;;;;;;5050992;28;20208;-77
2022/05/17 06:30:30;;;;;;;5.10;4.60;;;;;;;;;;5051530;28;20228;-77
2022/05/17 06:33:00;;;;;;;6.25;5.75;;;;;;;;;;5050895;28;20213;-77
2022/05/17 06:35:28;;;;;;;7.68;5.40;;;;;;;;;;5051801;28;20198;-78
2022/05/17 06:37:56;;;;;;;4.93;4.43;;;;;;;;;;5051375;28;20210;-77
2022/05/17 06:40:23;;;;;;;5.25;4.75;;;;;;;;;;5051781;28;20255;-77
2022/05/17 06:42:50;;;;;;;6.43;5.55;;;;;;;;;;5050352;28;20210;-77
2022/05/17 06:45:18;;;;;;;6.85;5.75;;;;;;;;;;5054053;28;20274;-77
2022/05/17 06:47:45;;;;;;;6.85;6.15;;;;;;;;;;5055120;28;20209;-77
2022/05/17 06:50:13;;;;;;;4.30;3.92;;;;;;;;;;5055410;28;20283;-77
2022/05/17 06:52:41;;;;;;;5.72;4.07;;;;;;;;;;5054796;28;20213;-77
2022/05/17 06:55:09;;;;;;;5.63;3.70;;;;;;;;;;5055089;28;20589;-77
2022/05/17 06:57:36;;;;;;;4.53;3.15;;;;;;;;;;5055233;28;20206;-77
2022/05/17 07:00:06;;;;;;;5.43;2.38;;;;;;;;;;5055149;28;20222;-77
2022/05/17 07:02:33;;;;;;;4.43;2.60;;;;;;;;;;5054693;28;20293;-77
2022/05/17 07:05:01;;;;;;;2.53;1.75;;;;;;;;;;5055253;28;20287;-77
2022/05/17 07:07:29;;;;;;;2.90;2.00;;;;;;;;;;5054981;28;20205;-77
2022/05/17 07:15:35;;;;;;;3.53;2.00;;;;;;;;;;5058300;28;20281;-77
2022/05/17 07:18:02;;;;;;;3.00;1.67;;;;;;;;;;5055091;28;20202;-78
2022/05/17 07:20:30;;;;;;;4.07;2.83;;;;;;;;;;5054798;28;20226;-78
2022/05/17 07:22:58;;;;;;;2.40;1.58;;;;;;;;;;5054298;28;20209;-77
2022/05/17 07:25:26;;;;;;;3.53;1.90;;;;;;;;;;5054948;28;20607;-77
2022/05/17 07:27:53;;;;;;;2.40;2.00;;;;;;;;;;5054737;28;20252;-77
2022/05/17 07:30:20;;;;;;;4.70;2.00;;;;;;;;;;5054393;28;20237;-78
2022/05/17 07:32:47;;;;;;;3.55;2.13;;;;;;;;;;5053839;28;20224;-77
2022/05/17 07:35:15;;;;;;;5.60;2.22;;;;;;;;;;5055007;28;20623;-78
2022/05/17 07:37:42;;;;;;;3.47;1.77;;;;;;;;;;5054925;28;20267;-77
2022/05/17 07:40:13;;;;;;;4.10;2.15;;;;;;;;;;5054943;28;20225;-78
2022/05/17 07:42:40;;;;;;;2.88;1.60;;;;;;;;;;5054130;28;20255;-78
2022/05/17 07:45:09;;;;;;;2.22;1.23;;;;;;;;;;5061073;28;20235;-77
2022/05/17 07:47:37;;;;;;;3.40;1.58;;;;;;;;;;5054558;28;20629;-77
2022/05/17 07:50:05;;;;;;;3.85;2.80;;;;;;;;;;5054438;28;20227;-78
2022/05/17 07:52:32;;;;;;;1.95;1.83;;;;;;;;;;5054295;28;20588;-77
2022/05/17 07:55:00;;;;;;;7.80;3.40;;;;;;;;;;5054108;28;20205;-78
2022/05/17 07:57:29;;;;;;;1.58;1.33;;;;;;;;;;5054535;28;20307;-77
2022/05/17 07:59:56;;;;;;;1.33;1.10;;;;;;;;;;5054220;28;20218;-78
2022/05/17 08:02:24;;;;;;;1.63;1.48;;;;;;;;;;5053909;28;20209;-77
2022/05/17 08:04:51;;;;;;;1.98;1.60;;;;;;;;;;5054226;28;20394;-77
2022/05/17 08:07:18;;;;;;;2.03;1.58;;;;;;;;;;5054099;28;20201;-77
2022/05/17 08:09:46;;;;;;;2.80;1.55;;;;;;;;;;5053381;28;20271;-81
2022/05/17 08:12:14;;;;;;;1.80;1.35;;;;;;;;;;5053752;28;20251;-78
2022/05/17 08:14:44;;;;;;;1.40;1.30;;;;;;;;;;5056801;28;20254;-77
2022/05/17 08:17:11;;;;;;;3.88;1.70;;;;;;;;;;5054246;28;20255;-78
2022/05/17 08:19:40;;;;;;;1.73;1.30;;;;;;;;;;5054276;28;20229;-78
2022/05/17 08:22:11;;;;;;;3.63;2.03;;;;;;;;;;5053501;28;20263;-78
2022/05/17 08:27:36;;;;;;;2.25;1.38;;;;;;;;;;5054032;28;20205;-78
2022/05/17 08:30:10;;;;;;;1.58;1.42;;;;;;;;;;5053877;28;20248;-78
2022/05/17 08:35:29;;;;;;;2.17;1.60;;;;;;;;;;5053460;28;20610;-78
2022/05/17 08:37:56;;;;;;;2.17;1.88;;;;;;;;;;5053448;28;20210;-78
2022/05/17 08:40:24;;;;;;;2.38;1.90;;;;;;;;;;5053096;28;20655;-78
2022/05/17 08:43:03;;;;;;;1.70;1.52;;;;;;;;;;5052507;28;20210;-78
2022/05/17 08:45:40;;;;;;;2.08;1.85;;;;;;;;;;5053316;28;20233;-78
2022/05/17 08:48:17;;;;;;;3.97;1.98;;;;;;;;;;5053567;28;20540;-78
2022/05/17 08:50:47;;;;;;;1.35;1.25;;;;;;;;;;5047465;28;20225;-78
2022/05/17 08:53:19;;;;;;;1.60;1.50;;;;;;;;;;5052581;28;20217;-79
2022/05/17 08:55:50;;;;;;;2.78;2.30;;;;;;;;;;5053750;28;20210;-78
2022/05/17 08:58:22;;;;;;;2.90;2.05;;;;;;;;;;5053302;28;20237;-78
2022/05/17 09:00:54;;;;;;;2.13;1.92;;;;;;;;;;5053126;28;20248;-78
2022/05/17 09:03:40;;;;;;;2.60;2.15;;;;;;;;;;5052422;28;20264;-79
2022/05/17 09:06:15;;;;;;;2.55;2.20;;;;;;;;;;5052114;28;20709;-78
2022/05/17 09:08:50;;;;;;;5.35;2.20;;;;;;;;;;5045673;28;20278;-78
2022/05/17 09:11:23;;;;;;;1.80;1.67;;;;;;;;;;5052691;28;20209;-78
2022/05/17 09:13:59;;;;;;;1.80;1.70;;;;;;;;;;5052130;28;20205;-78
2022/05/17 09:16:32;;;;;;;2.35;1.98;;;;;;;;;;5054465;28;20251;-77
2022/05/17 09:18:59;;;;;;;2.40;2.20;;;;;;;;;;5095626;22;20228;-82
2022/05/17 09:21:34;;;;;;;2.30;1.70;;;;;;;;;;5038533;28;20213;-81
2022/05/17 09:24:08;;;;;;;3.17;2.50;;;;;;;;;;5038568;28;20218;-82
2022/05/17 09:26:36;;;;;;;3.95;3.60;;;;;;;;;;5036758;28;20229;-81
2022/05/17 09:29:09;;;;;;;2.67;2.45;;;;;;;;;;5032151;28;20284;-81
2022/05/17 09:31:38;;;;;;;2.05;1.92;;;;;;;;;;5019482;28;20214;-81
2022/05/17 09:34:09;;;;;;;1.50;1.40;;;;;;;;;;5013075;28;20583;-81
2022/05/17 09:36:44;;;;;;;3.45;2.03;;;;;;;;;;5006693;28;20203;-80
2022/05/17 09:39:12;;;;;;;1.88;1.75;;;;;;;;;;5012977;28;20229;-79
2022/05/17 09:41:41;;;;;;;1.70;1.60;;;;;;;;;;5015731;28;20199;-82
2022/05/17 09:44:12;;;;;;;5.97;1.83;;;;;;;;;;5016526;28;20215;-84
2022/05/17 09:46:46;;;;;;;2.42;1.55;;;;;;;;;;5027483;28;20218;-80
2022/05/17 09:55:12;;;;;;;1.95;1.77;;;;;;;;;;5018940;28;20206;-79
2022/05/17 09:57:42;;;;;;;1.10;1.10;;;;;;;;;;5020080;28;20294;-84
2022/05/17 10:00:16;;;;;;;1.83;1.30;;;;;;;;;;5018966;28;20318;-80
2022/05/17 10:02:51;;;;;;;1.55;1.20;;;;;;;;;;4996739;28;20680;-81
2022/05/17 10:05:25;;;;;;;1.75;1.20;;;;;;;;;;5013678;28;20269;-81
2022/05/17 10:07:57;;;;;;;1.85;1.63;;;;;;;;;;5008530;28;20651;-81
2022/05/17 10:10:35;;;;;;;1.25;1.15;;;;;;;;;;5012830;28;20699;-81
2022/05/17 10:13:14;;;;;;;1.65;1.52;;;;;;;;;;5019067;28;20210;-82
2022/05/17 10:15:44;;;;;;;1.42;1.00;;;;;;;;;;5014199;28;20658;-81
2022/05/17 10:18:29;;;;;;;1.95;1.50;;;;;;;;;;5014466;28;20217;-80
2022/05/17 10:21:06;;;;;;;2.15;1.48;;;;;;;;;;5014616;28;20242;-82
2022/05/17 10:23:39;;;;;;;1.60;1.50;;;;;;;;;;5014870;28;20252;-81
2022/05/17 10:26:10;;;;;;;1.33;1.10;;;;;;;;;;5014840;28;20210;-81
2022/05/17 10:28:48;;;;;;;3.67;1.70;;;;;;;;;;5020891;28;20662;-81
2022/05/17 10:31:22;;;;;;;1.58;1.48;;;;;;;;;;5017967;28;20207;-82
2022/05/17 10:34:16;;;;;;;1.73;1.55;;;;;;;;;;5019841;28;20207;-82
2022/05/17 10:36:46;;;;;;;1.80;1.58;;;;;;;;;;5015561;28;20225;-82
2022/05/17 10:39:26;;;;;;;1.52;1.42;;;;;;;;;;5015927;28;20234;-82
2022/05/17 10:41:54;;;;;;;1.65;1.20;;;;;;;;;;5017696;28;20484;-82
2022/05/17 10:44:22;;;;;;;1.58;1.23;;;;;;;;;;5018169;28;20215;-81
2022/05/17 10:46:56;;;;;;;1.88;1.60;;;;;;;;;;5016280;28;20227;-82
2022/05/17 10:49:35;;;;;;;1.77;1.55;;;;;;;;;;5017119;28;20223;-82
2022/05/17 10:52:11;;;;;;;1.67;1.58;;;;;;;;;;5016299;28;20253;-80
2022/05/17 10:54:56;;;;;;;1.35;1.10;;;;;;;;;;5014900;28;20746;-81
2022/05/17 10:57:29;;;;;;;2.08;1.33;;;;;;;;;;5014372;28;20211;-81
2022/05/17 11:00:08;;;;;;;2.20;1.52;;;;;;;;;;5017696;28;20234;-82
2022/05/17 11:02:59;;;;;;;1.33;1.23;;;;;;;;;;5021651;28;20210;-80
2022/05/17 11:05:34;;;;;;;1.50;1.30;;;;;;;;;;5024881;28;20210;-83
2022/05/17 11:08:11;;;;;;;1.40;1.30;;;;;;;;;;5024417;28;20230;-80
2022/05/17 11:10:47;;;;;;;1.77;1.60;;;;;;;;;;5022591;28;20234;-81
2022/05/17 11:13:22;;;;;;;1.00;1.00;;;;;;;;;;5019253;28;20207;-80
2022/05/17 11:15:56;;;;;;;1.52;1.33;;;;;;;;;;5023970;28;20201;-80
2022/05/17 11:18:38;;;;;;;1.52;1.27;;;;;;;;;;5023620;28;20213;-81
2022/05/17 11:21:11;;;;;;;1.75;1.02;;;;;;;;;;5023727;28;20203;-82
2022/05/17 11:23:47;;;;;;;1.33;1.23;;;;;;;;;;5029994;28;20203;-80
2022/05/17 11:26:50;;;;;;;1.00;1.00;;;;;;;;;;5019065;28;20245;-80
2022/05/17 11:29:43;;;;;;;1.75;1.40;;;;;;;;;;5014340;28;20230;-80
2022/05/17 11:32:24;;;;;;;0.98;0.98;;;;;;;;;;5016429;28;20207;-79
2022/05/17 11:34:54;;;;;;;1.20;1.10;;;;;;;;;;5017444;28;20206;-80
2022/05/17 11:37:50;;;;;;;1.33;1.23;;;;;;;;;;5018045;28;20739;-81
2022/05/17 11:41:07;;;;;;;0.90;0.90;;;;;;;;;;5026818;28;20234;-79
2022/05/17 11:43:50;;;;;;;1.00;0.90;;;;;;;;;;4948134;29;20213;-80
2022/05/17 11:46:55;;;;;;;1.65;1.30;;;;;;;;;;5015581;28;20754;-79
2022/05/17 11:49:34;;;;;;;0.90;0.90;;;;;;;;;;5029572;28;20227;-80
2022/05/17 11:52:30;;;;;;;1.00;0.90;;;;;;;;;;5028569;28;20207;-80
2022/05/17 11:55:07;;;;;;;0.90;0.90;;;;;;;;;;4983305;28;20639;-80
2022/05/17 11:58:08;;;;;;;1.45;0.98;;;;;;;;;;5030141;28;20203;-78
2022/05/17 12:00:53;;;;;;;1.10;1.08;;;;;;;;;;5028187;28;20246;-79
2022/05/17 12:03:53;;;;;;;1.73;1.10;;;;;;;;;;5030780;28;20203;-80
2022/05/17 12:06:40;;;;;;;1.50;1.08;;;;;;;;;;5029118;28;20217;-79
2022/05/17 12:09:12;;;;;;;1.00;0.90;;;;;;;;;;5030543;28;20242;-78
2022/05/17 12:12:18;;;;;;;0.95;0.95;;;;;;;;;;5023861;28;20241;-80
2022/05/17 12:14:53;;;;;;;0.68;0.68;;;;;;;;;;5029057;28;20202;-80
2022/05/17 12:17:27;;;;;;;1.55;0.93;;;;;;;;;;5036815;28;20198;-81
2022/05/17 12:20:03;;;;;;;2.20;1.27;;;;;;;;;;5026009;28;20234;-79
2022/05/17 12:22:37;;;;;;;1.00;1.00;;;;;;;;;;5035204;28;20206;-78
2022/05/17 12:25:10;;;;;;;1.02;0.95;;;;;;;;;;5029866;28;20207;-79
2022/05/17 12:27:43;;;;;;;1.00;1.00;;;;;;;;;;5029304;28;20230;-79
2022/05/17 12:33:05;;;;;;;1.02;0.90;;;;;;;;;;5028769;28;20210;-79
2022/05/17 12:35:32;;;;;;;1.50;1.05;;;;;;;;;;5030145;28;20217;-81
2022/05/17 12:38:00;;;;;;;1.63;1.52;;;;;;;;;;5029494;28;20210;-81
2022/05/17 12:43:26;;;;;;;1.05;0.95;;;;;;;;;;5027308;28;20245;-78
2022/05/17 12:45:54;;;;;;;1.60;1.42;;;;;;;;;;5027294;28;20301;-80
2022/05/17 12:48:37;;;;;;;2.03;1.40;;;;;;;;;;5041306;28;20229;-79
2022/05/17 12:51:07;;;;;;;0.80;0.80;;;;;;;;;;5025871;28;20207;-79
2022/05/17 12:53:39;;;;;;;1.23;1.13;;;;;;;;;;5022591;28;20242;-80
2022/05/17 12:56:10;;;;;;;1.50;1.40;;;;;;;;;;5027150;28;20214;-80
2022/05/17 12:58:50;;;;;;;1.50;0.90;;;;;;;;;;5035249;28;20198;-78
2022/05/17 13:01:24;;;;;;;1.17;0.90;;;;;;;;;;5032039;28;20226;-78
2022/05/17 13:03:55;;;;;;;1.88;1.13;;;;;;;;;;5028246;28;20207;-79
2022/05/17 13:06:22;;;;;;;1.65;1.02;;;;;;;;;;5029465;28;20211;-79
2022/05/17 13:08:49;;;;;;;1.08;1.00;;;;;;;;;;5029214;28;20230;-78
2022/05/17 13:11:24;;;;;;;1.15;1.10;;;;;;;;;;5028384;28;20219;-79
2022/05/17 13:13:58;;;;;;;0.93;0.93;;;;;;;;;;5028149;28;20275;-78
2022/05/17 13:16:28;;;;;;;1.48;1.38;;;;;;;;;;5028984;28;20202;-78
2022/05/17 13:18:58;;;;;;;1.70;1.30;;;;;;;;;;5028915;28;20226;-78
2022/05/17 13:21:29;;;;;;;1.02;0.93;;;;;;;;;;5029357;28;20218;-78
2022/05/17 13:24:01;;;;;;;1.98;1.58;;;;;;;;;;5030389;28;20206;-80
2022/05/17 13:26:30;;;;;;;1.10;1.00;;;;;;;;;;5028787;28;20228;-78
2022/05/17 13:29:15;;;;;;;1.17;1.00;;;;;;;;;;5036911;28;20215;-77
2022/05/17 13:31:42;;;;;;;0.90;0.90;;;;;;;;;;5034057;28;20214;-79
2022/05/17 13:34:10;;;;;;;1.00;1.00;;;;;;;;;;5036435;28;20234;-77
2022/05/17 13:36:41;;;;;;;1.25;1.10;;;;;;;;;;5035022;28;20231;-76
2022/05/17 13:39:21;;;;;;;0.93;0.93;;;;;;;;;;5036452;28;20222;-78
2022/05/17 13:41:49;;;;;;;1.15;1.13;;;;;;;;;;5035361;28;20217;-76
2022/05/17 13:44:32;;;;;;;1.88;0.80;;;;;;;;;;5033295;28;20211;-77
2022/05/17 13:47:04;;;;;;;1.20;1.10;;;;;;;;;;5034598;28;20237;-78
2022/05/17 13:49:35;;;;;;;1.35;1.17;;;;;;;;;;5035544;28;20238;-77
2022/05/17 13:52:07;;;;;;;1.65;1.20;;;;;;;;;;5033370;28;20207;-76
2022/05/17 13:54:41;;;;;;;1.17;1.10;;;;;;;;;;5034428;28;20202;-78
2022/05/17 13:57:15;;;;;;;1.50;1.33;;;;;;;;;;5033755;28;20198;-78
2022/05/17 13:59:51;;;;;;;1.50;1.40;;;;;;;;;;5039686;28;20227;-77
2022/05/17 14:02:36;;;;;;;3.80;1.73;;;;;;;;;;5033462;28;20206;-78
2022/05/17 14:05:16;;;;;;;1.73;1.63;;;;;;;;;;5034931;28;20187;-77
2022/05/17 14:07:53;;;;;;;1.42;1.33;;;;;;;;;;5035951;28;20202;-76
2022/05/17 14:13:18;;;;;;;1.15;1.05;;;;;;;;;;5036226;28;20226;-76
2022/05/17 14:15:47;;;;;;;2.65;1.40;;;;;;;;;;5036099;28;20198;-78
2022/05/17 14:18:24;;;;;;;1.35;1.25;;;;;;;;;;5034682;28;20198;-77
2022/05/17 14:20:51;;;;;;;2.05;1.83;;;;;;;;;;5035167;28;20211;-78
2022/05/17 14:23:19;;;;;;;1.65;1.30;;;;;;;;;;5038589;28;20214;-78
2022/05/17 14:25:46;;;;;;;2.50;1.38;;;;;;;;;;5035460;28;20217;-77
2022/05/17 14:28:14;;;;;;;2.00;1.55;;;;;;;;;;5035828;28;20904;-76
2022/05/17 14:30:43;;;;;;;2.60;1.67;;;;;;;;;;5034589;28;20227;-77
2022/05/17 14:33:12;;;;;;;3.38;2.35;;;;;;;;;;5034892;28;20219;-78
2022/05/17 14:35:39;;;;;;;1.75;1.50;;;;;;;;;;5035979;28;20207;-78
2022/05/17 14:38:08;;;;;;;1.88;1.38;;;;;;;;;;5035304;28;20194;-77
2022/05/17 14:40:36;;;;;;;1.70;1.60;;;;;;;;;;5034875;28;20246;-78
2022/05/17 14:43:03;;;;;;;1.73;1.63;;;;;;;;;;5034632;28;20230;-80
2022/05/17 14:45:31;;;;;;;2.45;1.50;;;;;;;;;;5034606;28;20210;-77
2022/05/17 14:47:59;;;;;;;1.60;1.50;;;;;;;;;;5032940;28;20664;-79
2022/05/17 14:50:28;;;;;;;3.10;2.30;;;;;;;;;;5029363;28;20237;-79
2022/05/17 14:52:56;;;;;;;2.85;1.80;;;;;;;;;;5028903;28;20207;-79
2022/05/17 14:55:27;;;;;;;2.60;2.40;;;;;;;;;;5030579;28;20217;-78
2022/05/17 14:57:54;;;;;;;2.78;1.95;;;;;;;;;;5031955;28;20242;-79
2022/05/17 15:00:26;;;;;;;3.45;1.77;;;;;;;;;;5033320;28;20222;-78
2022/05/17 15:02:58;;;;;;;1.50;1.40;;;;;;;;;;5031004;28;20294;-79
2022/05/17 15:05:27;;;;;;;2.05;1.63;;;;;;;;;;5031369;28;20250;-80
2022/05/17 15:07:55;;;;;;;2.60;2.17;;;;;;;;;;5033592;28;20207;-78
2022/05/17 15:10:28;;;;;;;3.05;2.10;;;;;;;;;;5033144;28;20242;-79
2022/05/17 15:12:56;;;;;;;2.75;2.10;;;;;;;;;;5032982;28;20241;-79
2022/05/17 15:15:24;;;;;;;1.83;1.70;;;;;;;;;;5033838;28;20210;-79
2022/05/17 15:17:55;;;;;;;2.47;2.28;;;;;;;;;;5034075;28;20586;-79
2022/05/17 15:20:23;;;;;;;2.33;1.70;;;;;;;;;;5053450;22;20263;-80
2022/05/17 15:22:53;;;;;;;1.80;1.60;;;;;;;;;;5060646;28;20568;-79
2022/05/17 15:25:22;;;;;;;2.10;1.52;;;;;;;;;;5060362;28;20186;-78
2022/05/17 15:27:52;;;;;;;1.83;1.60;;;;;;;;;;5060563;28;20240;-79
2022/05/17 15:30:19;;;;;;;2.17;1.98;;;;;;;;;;5061759;28;20274;-82
2022/05/17 15:32:47;;;;;;;2.67;1.73;;;;;;;;;;5060200;28;20405;-79